Time;durP1;ratioP1;P1;durP2;ratioP2;P2;SDS_P1;SDS_P2;PMS_P1;PMS_P2;Temp;Humidity;BMP_temperature;BMP_pressure;BME280_temperature;BME280_humidity;BME280_pressure;Samples;Min_cycle;Max_cycle;Signal;HPM_P1;HPM_P2
2022/02/18 00:00:37;;;;;;;14.88;3.00;;;7.80;82.60;;;;;;5052208;28;20053;-41
2022/02/18 00:03:03;;;;;;;17.27;4.18;;;7.80;83.00;;;;;;5052143;28;20032;-41
2022/02/18 00:05:29;;;;;;;14.38;2.60;;;7.80;82.90;;;;;;5050789;28;20028;-41
2022/02/18 00:07:55;;;;;;;12.50;3.03;;;7.80;82.90;;;;;;5052043;28;20025;-41
2022/02/18 00:10:20;;;;;;;14.77;2.78;;;7.80;83.20;;;;;;5052186;28;20025;-42
2022/02/18 00:12:46;;;;;;;9.90;2.42;;;7.80;83.10;;;;;;5051933;28;20013;-41
2022/02/18 00:15:12;;;;;;;14.75;2.72;;;7.80;83.10;;;;;;5053538;28;20028;-42
2022/02/18 00:17:38;;;;;;;12.38;2.55;;;7.90;83.20;;;;;;5055542;28;20024;-45
2022/02/18 00:20:06;;;;;;;11.30;2.80;;;7.90;83.20;;;;;;5055620;28;20040;-42
2022/02/18 00:22:31;;;;;;;8.77;2.70;;;7.90;83.10;;;;;;5055517;28;20029;-41
2022/02/18 00:24:57;;;;;;;10.65;2.40;;;7.80;83.00;;;;;;5055502;28;20075;-41
2022/02/18 00:27:22;;;;;;;13.85;2.40;;;7.90;82.90;;;;;;5055332;28;20031;-41
2022/02/18 00:29:48;;;;;;;13.10;2.90;;;7.90;82.90;;;;;;5055274;28;20027;-41
2022/02/18 00:32:13;;;;;;;6.68;2.00;;;7.90;82.90;;;;;;5055434;28;20043;-41
2022/02/18 00:34:39;;;;;;;11.90;2.72;;;7.90;82.90;;;;;;5055227;28;20024;-41
2022/02/18 00:37:05;;;;;;;11.07;2.05;;;7.90;83.00;;;;;;5055314;28;20052;-42
2022/02/18 00:39:32;;;;;;;13.07;2.50;;;7.90;83.60;;;;;;5055196;28;20499;-41
2022/02/18 00:41:58;;;;;;;12.68;2.70;;;7.90;83.00;;;;;;5055406;28;20517;-42
2022/02/18 00:44:24;;;;;;;14.68;2.53;;;7.90;83.00;;;;;;5054899;28;20036;-41
2022/02/18 00:46:51;;;;;;;9.18;2.40;;;7.90;82.90;;;;;;5055140;28;20032;-42
2022/02/18 00:49:17;;;;;;;11.90;2.58;;;7.90;82.90;;;;;;5053577;28;20037;-41
2022/02/18 00:51:43;;;;;;;10.32;1.90;;;7.90;82.90;;;;;;5053689;28;20421;-42
2022/02/18 00:54:08;;;;;;;11.20;2.25;;;8.00;83.00;;;;;;5054946;28;20017;-41
2022/02/18 00:56:34;;;;;;;12.00;2.35;;;8.00;83.00;;;;;;5054747;28;20035;-41
2022/02/18 00:59:02;;;;;;;15.40;3.35;;;8.00;83.10;;;;;;5054860;28;20017;-41
2022/02/18 01:01:28;;;;;;;11.93;2.75;;;8.00;83.10;;;;;;5054956;28;20029;-40
2022/02/18 01:03:54;;;;;;;10.50;2.17;;;7.90;83.10;;;;;;5054674;28;20396;-41
2022/02/18 01:06:19;;;;;;;9.77;1.90;;;8.00;83.20;;;;;;5054644;28;20104;-40
2022/02/18 01:08:45;;;;;;;13.20;2.53;;;7.90;83.10;;;;;;5054512;28;20048;-40
2022/02/18 01:11:10;;;;;;;11.07;2.28;;;8.00;83.20;;;;;;5054713;28;20384;-41
2022/02/18 01:13:36;;;;;;;11.35;2.22;;;8.00;83.20;;;;;;5054450;28;20032;-41
2022/02/18 01:16:01;;;;;;;7.90;2.10;;;8.00;83.10;;;;;;5054683;28;20059;-39
2022/02/18 01:18:27;;;;;;;16.88;3.13;;;8.00;83.10;;;;;;5054306;28;20029;-41
2022/02/18 01:20:53;;;;;;;9.50;2.70;;;8.00;83.10;;;;;;5054323;28;20039;-41
2022/02/18 01:23:18;;;;;;;15.57;3.35;;;8.00;83.20;;;;;;5054420;28;20044;-40
2022/02/18 01:25:44;;;;;;;12.05;2.60;;;8.00;83.20;;;;;;5053971;28;20053;-41
2022/02/18 01:28:10;;;;;;;11.38;2.45;;;8.00;83.30;;;;;;5054530;28;20032;-41
2022/02/18 01:30:37;;;;;;;9.70;2.45;;;8.00;83.30;;;;;;5054043;28;20029;-41
2022/02/18 01:33:04;;;;;;;7.93;2.42;;;8.00;83.30;;;;;;5054285;28;20108;-39
2022/02/18 01:35:29;;;;;;;9.48;2.30;;;8.00;83.30;;;;;;5054061;28;20569;-40
2022/02/18 01:37:55;;;;;;;13.13;2.10;;;8.00;83.30;;;;;;5054142;28;20108;-42
2022/02/18 01:40:22;;;;;;;13.52;2.67;;;8.00;83.30;;;;;;5053922;28;20036;-41
2022/02/18 01:42:48;;;;;;;6.00;2.13;;;8.00;83.30;;;;;;5053935;28;20048;-41
2022/02/18 01:45:15;;;;;;;10.50;1.95;;;8.00;83.30;;;;;;5053935;28;20021;-41
2022/02/18 01:47:41;;;;;;;9.75;2.00;;;8.00;83.20;;;;;;5054147;28;20477;-41
2022/02/18 01:50:08;;;;;;;11.23;2.30;;;8.00;83.20;;;;;;5053749;28;20040;-41
2022/02/18 01:52:37;;;;;;;10.82;2.10;;;8.10;83.20;;;;;;5053692;28;20039;-40
2022/02/18 01:55:10;;;;;;;11.68;2.45;;;8.10;83.20;;;;;;5053836;28;20074;-41
2022/02/18 01:57:52;;;;;;;9.75;2.20;;;8.10;83.20;;;;;;5053947;28;20528;-41
2022/02/18 02:00:24;;;;;;;13.20;2.30;;;8.10;83.20;;;;;;5053679;28;20472;-41
2022/02/18 02:02:50;;;;;;;7.90;2.10;;;8.10;83.20;;;;;;5053695;28;20049;-41
2022/02/18 02:05:16;;;;;;;7.18;2.28;;;8.10;83.10;;;;;;5053570;28;20103;-40
2022/02/18 02:07:43;;;;;;;12.85;2.80;;;8.10;83.10;;;;;;5053435;28;20029;-41
2022/02/18 02:10:13;;;;;;;7.68;2.20;;;8.10;83.10;;;;;;5053415;28;20079;-41
2022/02/18 02:12:48;;;;;;;11.95;2.22;;;8.10;83.00;;;;;;5053589;28;20354;-40
2022/02/18 02:15:13;;;;;;;11.07;2.28;;;8.20;83.00;;;;;;5053374;28;20116;-41
2022/02/18 02:17:39;;;;;;;12.77;2.20;;;8.20;83.00;;;;;;5053235;28;20053;-41
2022/02/18 02:20:07;;;;;;;9.60;2.42;;;8.20;83.00;;;;;;5053285;28;20025;-41
2022/02/18 02:22:33;;;;;;;13.52;2.45;;;8.20;82.90;;;;;;5053266;28;20113;-40
2022/02/18 02:24:59;;;;;;;11.85;2.17;;;8.20;82.90;;;;;;5053260;28;20557;-41
2022/02/18 02:27:25;;;;;;;10.38;2.28;;;8.30;82.80;;;;;;5053127;28;20477;-40
2022/02/18 02:29:52;;;;;;;6.60;1.92;;;8.30;82.80;;;;;;5053061;28;20385;-41
2022/02/18 02:32:18;;;;;;;7.18;2.00;;;8.30;82.80;;;;;;5051657;28;20341;-40
2022/02/18 02:34:44;;;;;;;7.35;1.90;;;8.40;82.80;;;;;;5053068;28;20028;-41
2022/02/18 02:37:10;;;;;;;8.20;1.80;;;8.40;82.70;;;;;;5052471;28;20025;-40
2022/02/18 02:39:36;;;;;;;7.22;1.98;;;8.40;82.60;;;;;;5052701;28;20035;-41
2022/02/18 02:42:03;;;;;;;5.63;1.80;;;8.40;82.60;;;;;;5052902;28;20028;-41
2022/02/18 02:44:29;;;;;;;12.07;2.65;;;8.40;82.50;;;;;;5052701;28;20045;-41
2022/02/18 02:46:55;;;;;;;11.63;1.90;;;8.50;82.50;;;;;;5052905;28;20021;-41
2022/02/18 02:49:21;;;;;;;10.60;2.40;;;8.40;82.40;;;;;;5053079;28;20033;-41
2022/02/18 02:51:46;;;;;;;8.15;2.28;;;8.50;82.40;;;;;;5052808;28;20028;-41
2022/02/18 02:54:13;;;;;;;8.43;1.80;;;8.50;82.30;;;;;;5052810;28;20037;-41
2022/02/18 02:56:38;;;;;;;8.55;2.30;;;8.50;82.30;;;;;;5052704;28;20524;-41
2022/02/18 02:59:04;;;;;;;8.25;1.77;;;8.50;82.30;;;;;;5052731;28;20021;-41
2022/02/18 03:01:30;;;;;;;8.80;2.17;;;8.50;82.20;;;;;;5052778;28;20028;-41
2022/02/18 03:03:56;;;;;;;10.27;2.20;;;8.50;82.30;;;;;;5052898;28;20040;-41
2022/02/18 03:06:22;;;;;;;9.90;2.70;;;8.50;82.20;;;;;;5052662;28;20025;-41
2022/02/18 03:08:48;;;;;;;9.70;2.47;;;8.50;82.20;;;;;;5052693;28;20025;-38
2022/02/18 03:11:16;;;;;;;9.63;2.55;;;8.60;82.20;;;;;;5053074;28;20021;-41
2022/02/18 03:13:53;;;;;;;9.02;2.58;;;8.60;82.20;;;;;;5052541;28;20478;-41
2022/02/18 03:16:21;;;;;;;10.45;2.40;;;8.60;82.20;;;;;;5052587;28;20021;-41
2022/02/18 03:18:47;;;;;;;9.90;2.20;;;8.50;82.10;;;;;;5052544;28;20025;-40
2022/02/18 03:21:15;;;;;;;12.20;2.67;;;8.60;82.70;;;;;;5052555;28;20116;-41
2022/02/18 03:23:45;;;;;;;5.68;2.33;;;8.60;82.10;;;;;;5052535;28;20469;-40
2022/02/18 03:26:15;;;;;;;12.02;2.97;;;8.50;82.00;;;;;;5052771;28;20090;-40
2022/02/18 03:28:41;;;;;;;9.18;2.60;;;8.50;82.10;;;;;;5052549;28;20472;-41
2022/02/18 03:31:10;;;;;;;13.27;2.55;;;8.60;82.10;;;;;;5052321;28;20024;-40
2022/02/18 03:33:37;;;;;;;10.20;2.65;;;8.60;82.10;;;;;;5052295;28;20024;-40
2022/02/18 03:36:03;;;;;;;11.68;2.65;;;8.60;82.10;;;;;;5052560;28;20021;-41
2022/02/18 03:38:29;;;;;;;7.25;2.75;;;8.60;82.10;;;;;;5052378;28;20055;-41
2022/02/18 03:40:55;;;;;;;15.40;3.20;;;8.60;82.00;;;;;;5052346;28;20025;-41
2022/02/18 03:43:20;;;;;;;12.27;2.85;;;8.60;82.00;;;;;;5052164;28;20523;-40
2022/02/18 03:45:46;;;;;;;9.88;2.65;;;8.60;82.00;;;;;;5052220;28;20029;-43
2022/02/18 03:48:11;;;;;;;8.55;2.35;;;8.60;82.00;;;;;;5052319;28;20051;-41
2022/02/18 03:50:37;;;;;;;12.05;2.60;;;8.60;82.00;;;;;;5055715;28;20036;-41
2022/02/18 03:53:03;;;;;;;9.88;2.85;;;8.60;82.00;;;;;;5056282;28;20047;-41
2022/02/18 03:55:29;;;;;;;12.55;3.08;;;8.70;82.00;;;;;;5056020;28;20021;-40
2022/02/18 03:57:56;;;;;;;13.07;2.35;;;8.60;81.90;;;;;;5054677;28;20086;-41
2022/02/18 04:00:22;;;;;;;14.10;2.53;;;8.60;82.00;;;;;;5056193;28;20074;-41
2022/02/18 04:02:47;;;;;;;11.88;2.70;;;8.60;82.10;;;;;;5055779;28;20427;-40
2022/02/18 04:05:13;;;;;;;11.27;2.70;;;8.60;82.00;;;;;;5055819;28;20570;-42
2022/02/18 04:07:38;;;;;;;13.20;2.67;;;8.70;82.10;;;;;;5055812;28;20457;-40
2022/02/18 04:10:04;;;;;;;11.40;2.90;;;8.70;82.20;;;;;;5055662;28;20116;-41
2022/02/18 04:12:30;;;;;;;14.00;2.80;;;8.70;82.20;;;;;;5055743;28;20028;-41
2022/02/18 04:14:55;;;;;;;10.70;2.75;;;8.70;82.20;;;;;;5055600;28;20025;-42
2022/02/18 04:17:26;;;;;;;10.60;2.33;;;8.70;82.20;;;;;;5055700;28;20147;-44
2022/02/18 04:19:52;;;;;;;9.55;2.35;;;8.70;82.30;;;;;;5055609;28;20024;-41
2022/02/18 04:22:18;;;;;;;15.18;2.95;;;8.60;82.20;;;;;;5055518;28;20029;-41
2022/02/18 04:24:43;;;;;;;11.30;2.28;;;8.60;82.30;;;;;;5055490;28;20021;-41
2022/02/18 04:27:09;;;;;;;10.93;2.33;;;8.60;82.30;;;;;;5055360;28;20385;-42
2022/02/18 04:29:35;;;;;;;11.95;2.75;;;8.60;82.40;;;;;;5055820;28;20047;-41
2022/02/18 04:32:00;;;;;;;10.30;2.45;;;8.60;82.40;;;;;;5055268;28;20021;-41
2022/02/18 04:34:26;;;;;;;13.40;2.67;;;8.60;82.40;;;;;;5055176;28;20025;-41
2022/02/18 04:36:52;;;;;;;11.20;2.55;;;8.60;82.50;;;;;;5055433;28;20537;-41
2022/02/18 04:39:17;;;;;;;14.27;2.35;;;8.60;82.60;;;;;;5055211;28;20389;-41
2022/02/18 04:41:43;;;;;;;15.65;2.97;;;8.50;82.60;;;;;;5055061;28;20049;-41
2022/02/18 04:44:08;;;;;;;10.57;2.15;;;8.60;82.70;;;;;;5054907;28;20493;-41
2022/02/18 04:46:34;;;;;;;12.10;2.25;;;8.60;83.30;;;;;;5055011;28;20036;-42
2022/02/18 04:49:00;;;;;;;15.82;2.53;;;8.60;82.70;;;;;;5054939;28;20028;-41
2022/02/18 04:51:25;;;;;;;11.27;2.22;;;8.60;82.80;;;;;;5054854;28;20013;-41
2022/02/18 04:53:51;;;;;;;12.38;2.47;;;8.60;82.80;;;;;;5055178;28;20362;-41
2022/02/18 04:56:16;;;;;;;14.88;2.60;;;8.60;82.80;;;;;;5055146;28;20373;-41
2022/02/18 04:58:42;;;;;;;12.65;2.92;;;8.60;82.80;;;;;;5054686;28;20060;-41
2022/02/18 05:01:11;;;;;;;13.02;2.85;;;8.60;82.90;;;;;;5052709;28;20017;-41
2022/02/18 05:03:38;;;;;;;15.15;3.10;;;8.50;82.90;;;;;;5054645;28;20024;-41
2022/02/18 05:06:04;;;;;;;12.20;2.50;;;8.50;83.00;;;;;;5054619;28;20028;-40
2022/02/18 05:08:29;;;;;;;17.48;3.20;;;8.50;83.00;;;;;;5054560;28;20380;-40
2022/02/18 05:10:55;;;;;;;10.52;2.65;;;8.50;83.10;;;;;;5054493;28;20121;-40
2022/02/18 05:13:21;;;;;;;12.32;2.35;;;8.50;83.20;;;;;;5054527;28;20017;-42
2022/02/18 05:15:47;;;;;;;18.60;3.05;;;8.50;83.30;;;;;;5054780;28;20025;-41
2022/02/18 05:18:13;;;;;;;15.95;2.88;;;8.50;83.30;;;;;;5054706;28;20468;-41
2022/02/18 05:20:38;;;;;;;15.48;3.13;;;8.50;83.40;;;;;;5054331;28;20108;-40
2022/02/18 05:23:04;;;;;;;10.65;3.00;;;8.50;83.50;;;;;;5054322;28;20032;-40
2022/02/18 05:25:31;;;;;;;13.35;2.63;;;8.50;83.50;;;;;;5054273;28;20362;-42
2022/02/18 05:28:04;;;;;;;15.90;3.05;;;8.50;83.50;;;;;;5054481;28;20052;-41
2022/02/18 05:30:32;;;;;;;14.55;2.65;;;8.50;83.50;;;;;;5054168;28;20543;-42
2022/02/18 05:32:58;;;;;;;14.40;2.63;;;8.50;83.60;;;;;;5054060;28;20021;-41
2022/02/18 05:35:23;;;;;;;12.90;2.53;;;8.50;83.50;;;;;;5054162;28;20028;-40
2022/02/18 05:37:49;;;;;;;15.32;3.80;;;8.50;83.50;;;;;;5053998;28;20063;-42
2022/02/18 05:40:14;;;;;;;18.42;2.72;;;8.50;83.60;;;;;;5053602;28;20094;-41
2022/02/18 05:42:41;;;;;;;13.40;2.83;;;8.50;83.60;;;;;;5053642;28;20063;-41
2022/02/18 05:45:07;;;;;;;10.27;2.65;;;8.50;83.60;;;;;;5052300;28;20057;-40
2022/02/18 05:47:37;;;;;;;14.98;3.03;;;8.50;83.70;;;;;;5053718;28;20063;-41
2022/02/18 05:50:11;;;;;;;14.02;2.60;;;8.50;83.80;;;;;;5053348;28;20508;-42
2022/02/18 05:52:38;;;;;;;11.15;2.55;;;8.50;83.80;;;;;;5053509;28;20362;-41
2022/02/18 05:55:04;;;;;;;10.45;2.90;;;8.50;83.90;;;;;;5053463;28;20079;-41
2022/02/18 05:57:30;;;;;;;14.13;2.53;;;8.50;83.90;;;;;;5053400;28;20028;-41
2022/02/18 05:59:55;;;;;;;14.25;2.63;;;8.50;84.00;;;;;;5052074;28;20017;-40
2022/02/18 06:02:21;;;;;;;13.38;2.58;;;8.50;84.10;;;;;;5053366;28;20036;-42
2022/02/18 06:04:46;;;;;;;18.80;3.45;;;8.50;84.10;;;;;;5053341;28;20391;-42
2022/02/18 06:07:14;;;;;;;12.55;2.47;;;8.50;84.10;;;;;;5053215;28;20033;-48
2022/02/18 06:09:40;;;;;;;10.25;2.40;;;8.50;84.90;;;;;;5053030;28;20028;-41
2022/02/18 06:12:06;;;;;;;14.90;2.85;;;8.50;84.70;;;;;;5052333;28;20017;-40
2022/02/18 06:14:31;;;;;;;13.38;2.75;;;8.50;84.70;;;;;;5052895;28;20021;-41
2022/02/18 06:16:57;;;;;;;17.45;2.90;;;8.50;84.60;;;;;;5051589;28;20051;-41
2022/02/18 06:19:22;;;;;;;18.33;3.10;;;8.60;84.90;;;;;;5053218;28;20060;-41
2022/02/18 06:21:48;;;;;;;11.35;2.50;;;8.50;84.90;;;;;;5051672;28;20025;-41
2022/02/18 06:24:13;;;;;;;11.23;2.60;;;8.60;85.00;;;;;;5052763;28;20485;-41
2022/02/18 06:26:39;;;;;;;8.45;2.78;;;8.60;85.00;;;;;;5052684;28;20035;-41
2022/02/18 06:29:04;;;;;;;17.13;3.00;;;8.60;85.00;;;;;;5052588;28;20558;-41
2022/02/18 06:31:30;;;;;;;13.57;2.97;;;8.60;84.90;;;;;;5052642;28;20071;-41
2022/02/18 06:33:56;;;;;;;14.15;2.97;;;8.60;84.90;;;;;;5052674;28;20017;-41
2022/02/18 06:36:22;;;;;;;14.10;2.28;;;8.60;84.80;;;;;;5052594;28;20100;-41
2022/02/18 06:38:47;;;;;;;11.23;2.35;;;8.60;85.10;;;;;;5052590;28;20029;-41
2022/02/18 06:41:14;;;;;;;12.05;2.75;;;8.60;85.10;;;;;;5051195;28;20029;-41
2022/02/18 06:43:40;;;;;;;10.82;2.45;;;8.60;85.20;;;;;;5052365;28;20111;-41
2022/02/18 06:46:05;;;;;;;17.98;2.92;;;8.60;85.10;;;;;;5052435;28;20045;-41
2022/02/18 06:48:31;;;;;;;13.80;2.60;;;8.60;85.10;;;;;;5052413;28;20497;-41
2022/02/18 06:50:57;;;;;;;11.25;2.30;;;8.60;85.10;;;;;;5052398;28;20060;-42
2022/02/18 06:53:22;;;;;;;11.00;2.38;;;8.60;85.40;;;;;;5052441;28;20108;-40
2022/02/18 06:55:48;;;;;;;12.88;2.60;;;8.60;86.00;;;;;;5052392;28;20029;-40
2022/02/18 06:58:14;;;;;;;12.82;2.78;;;8.60;85.60;;;;;;5052141;28;20048;-42
2022/02/18 07:00:39;;;;;;;11.55;2.60;;;8.60;85.80;;;;;;5051074;28;20130;-41
2022/02/18 07:03:07;;;;;;;14.13;2.17;;;8.60;85.70;;;;;;5052236;28;20021;-42
2022/02/18 07:05:33;;;;;;;14.35;2.92;;;8.60;85.90;;;;;;5052586;28;20365;-41
2022/02/18 07:07:59;;;;;;;18.25;2.90;;;8.60;86.00;;;;;;5052454;28;20048;-42
2022/02/18 07:10:25;;;;;;;12.40;3.58;;;8.60;86.20;;;;;;5052045;28;20068;-41
2022/02/18 07:12:51;;;;;;;13.07;2.70;;;8.60;86.90;;;;;;5051078;28;20051;-42
2022/02/18 07:15:16;;;;;;;11.30;2.58;;;8.60;86.40;;;;;;5052142;28;20096;-42
2022/02/18 07:17:42;;;;;;;11.45;2.38;;;8.60;86.40;;;;;;5050872;28;20025;-39
2022/02/18 07:20:10;;;;;;;10.50;2.58;;;8.60;86.40;;;;;;5052149;28;20132;-42
2022/02/18 07:22:36;;;;;;;9.40;2.38;;;8.60;86.50;;;;;;5051848;28;20029;-42
2022/02/18 07:25:03;;;;;;;15.60;2.80;;;8.60;86.60;;;;;;5055263;28;20471;-41
2022/02/18 07:27:29;;;;;;;10.05;2.30;;;8.60;86.60;;;;;;5056469;28;20028;-41
2022/02/18 07:29:54;;;;;;;11.25;2.70;;;8.60;86.70;;;;;;5056081;28;20028;-41
2022/02/18 07:32:24;;;;;;;7.95;2.83;;;8.60;86.80;;;;;;5055979;28;20024;-41
2022/02/18 07:34:50;;;;;;;10.18;2.20;;;8.60;86.80;;;;;;5056132;28;20436;-40
2022/02/18 07:37:16;;;;;;;10.02;2.42;;;8.60;86.80;;;;;;5056007;28;20029;-42
2022/02/18 07:39:42;;;;;;;8.15;2.58;;;8.70;86.90;;;;;;5055678;28;20086;-42
2022/02/18 07:42:08;;;;;;;11.75;2.85;;;8.70;86.90;;;;;;5055834;28;20112;-40
2022/02/18 07:44:33;;;;;;;9.70;2.47;;;8.70;87.00;;;;;;5056093;28;20518;-40
2022/02/18 07:46:59;;;;;;;8.82;2.28;;;8.70;87.10;;;;;;5055876;28;20029;-41
2022/02/18 07:49:24;;;;;;;17.45;3.13;;;8.80;87.40;;;;;;5055650;28;20033;-41
2022/02/18 07:51:50;;;;;;;15.88;2.88;;;8.80;87.40;;;;;;5055652;28;20025;-42
2022/02/18 07:54:15;;;;;;;10.80;2.25;;;8.80;87.30;;;;;;5055543;28;20443;-41
2022/02/18 07:56:43;;;;;;;10.00;2.35;;;8.80;87.30;;;;;;5055561;28;20025;-41
2022/02/18 07:59:09;;;;;;;10.05;2.35;;;8.90;87.40;;;;;;5054058;28;20036;-41
2022/02/18 08:01:34;;;;;;;6.72;2.05;;;8.90;87.40;;;;;;5055114;28;20025;-40
2022/02/18 08:04:00;;;;;;;11.18;2.55;;;8.90;87.30;;;;;;5055335;28;20036;-41
2022/02/18 08:06:25;;;;;;;10.43;2.70;;;9.00;87.50;;;;;;5055576;28;20104;-40
2022/02/18 08:08:53;;;;;;;14.20;2.75;;;8.90;87.50;;;;;;5055674;28;20040;-41
2022/02/18 08:11:19;;;;;;;6.82;2.30;;;9.00;87.60;;;;;;5055410;28;20050;-42
2022/02/18 08:13:45;;;;;;;8.38;2.15;;;9.00;87.70;;;;;;5055285;28;20104;-42
2022/02/18 08:16:11;;;;;;;12.35;2.67;;;9.00;87.60;;;;;;5055200;28;20499;-41
2022/02/18 08:18:37;;;;;;;9.90;2.40;;;9.00;87.60;;;;;;5055322;28;20029;-42
2022/02/18 08:21:03;;;;;;;8.82;2.35;;;9.10;87.60;;;;;;5055208;28;20029;-42
2022/02/18 08:23:29;;;;;;;10.52;2.40;;;9.10;87.70;;;;;;5054992;28;20104;-41
2022/02/18 08:25:54;;;;;;;8.30;2.42;;;9.10;87.70;;;;;;5055180;28;20036;-41
2022/02/18 08:28:20;;;;;;;14.05;3.85;;;9.10;87.70;;;;;;5055400;28;20025;-42
2022/02/18 08:30:46;;;;;;;10.48;3.10;;;9.20;87.80;;;;;;5054925;28;20048;-42
2022/02/18 08:33:12;;;;;;;6.65;2.38;;;9.20;87.80;;;;;;5054959;28;20022;-42
2022/02/18 08:35:39;;;;;;;9.45;2.30;;;9.30;87.90;;;;;;5054006;28;20033;-42
2022/02/18 08:38:06;;;;;;;9.45;2.67;;;9.30;87.80;;;;;;5054972;28;20108;-42
2022/02/18 08:40:32;;;;;;;11.50;2.55;;;9.30;87.80;;;;;;5054953;28;20029;-42
2022/02/18 08:42:58;;;;;;;7.75;2.72;;;9.30;87.80;;;;;;5054827;28;20056;-42
2022/02/18 08:45:23;;;;;;;13.95;2.50;;;9.40;87.90;;;;;;5054796;28;20021;-41
2022/02/18 08:47:49;;;;;;;7.20;2.03;;;9.40;88.50;;;;;;5054805;28;20036;-41
2022/02/18 08:50:16;;;;;;;10.32;2.38;;;9.40;87.90;;;;;;5054756;28;20025;-42
2022/02/18 08:52:43;;;;;;;8.10;2.50;;;9.40;87.90;;;;;;5054773;28;20496;-42
2022/02/18 08:55:11;;;;;;;10.45;3.40;;;9.40;87.90;;;;;;5055052;28;20036;-42
2022/02/18 08:57:37;;;;;;;10.48;2.70;;;9.50;88.00;;;;;;5054670;28;20021;-42
2022/02/18 09:00:05;;;;;;;7.13;2.40;;;9.50;87.90;;;;;;5054641;28;20029;-42
2022/02/18 09:02:32;;;;;;;11.85;3.03;;;9.50;88.50;;;;;;5054613;28;20104;-42
2022/02/18 09:04:57;;;;;;;10.82;2.92;;;9.60;88.00;;;;;;5054818;28;20366;-41
2022/02/18 09:07:24;;;;;;;7.55;2.45;;;9.50;88.00;;;;;;5054462;28;20120;-42
2022/02/18 09:09:49;;;;;;;12.52;3.20;;;9.60;88.10;;;;;;5054581;28;20361;-42
2022/02/18 09:12:15;;;;;;;14.55;3.20;;;9.60;88.20;;;;;;5054538;28;20075;-42
2022/02/18 09:14:41;;;;;;;8.40;2.55;;;9.70;88.20;;;;;;5054310;28;20027;-42
2022/02/18 09:17:07;;;;;;;9.77;2.70;;;9.70;88.20;;;;;;5054534;28;20465;-42
2022/02/18 09:19:33;;;;;;;7.25;2.50;;;9.70;88.20;;;;;;5052781;28;20029;-42
2022/02/18 09:21:59;;;;;;;8.10;2.60;;;9.80;88.30;;;;;;5054326;28;20032;-43
2022/02/18 09:24:25;;;;;;;7.70;2.53;;;9.80;88.50;;;;;;5054233;28;20147;-41
2022/02/18 09:26:51;;;;;;;7.40;2.28;;;9.80;88.60;;;;;;5054308;28;20024;-44
2022/02/18 09:29:18;;;;;;;4.90;1.98;;;9.90;88.60;;;;;;5054054;28;20532;-42
2022/02/18 09:31:44;;;;;;;5.82;2.10;;;9.90;88.70;;;;;;5053883;28;20041;-42
2022/02/18 09:34:10;;;;;;;6.75;2.00;;;10.00;88.70;;;;;;5053983;28;20020;-41
2022/02/18 09:36:36;;;;;;;7.72;2.00;;;10.00;88.70;;;;;;5053820;28;20481;-41
2022/02/18 09:39:02;;;;;;;6.05;2.20;;;10.00;88.60;;;;;;5053799;28;20017;-42
2022/02/18 09:41:28;;;;;;;5.18;2.08;;;10.10;88.80;;;;;;5053540;28;20104;-41
2022/02/18 09:43:54;;;;;;;4.55;1.80;;;10.20;88.80;;;;;;5053440;28;20128;-42
2022/02/18 09:46:21;;;;;;;3.13;1.48;;;10.20;88.90;;;;;;5053295;28;20472;-41
2022/02/18 09:48:47;;;;;;;5.43;1.92;;;10.20;88.80;;;;;;5053713;28;20060;-42
2022/02/18 09:51:15;;;;;;;4.82;1.90;;;10.30;88.90;;;;;;5053335;28;20101;-42
2022/02/18 09:53:42;;;;;;;4.57;1.60;;;10.40;88.90;;;;;;5053669;28;20115;-42
2022/02/18 09:56:09;;;;;;;3.25;1.73;;;10.40;88.90;;;;;;5053332;28;20059;-42
2022/02/18 09:58:36;;;;;;;6.28;1.70;;;10.40;88.80;;;;;;5053692;28;20432;-42
2022/02/18 10:01:02;;;;;;;5.85;1.65;;;10.40;88.90;;;;;;5053592;28;20106;-42
2022/02/18 10:03:28;;;;;;;5.18;2.10;;;10.50;88.90;;;;;;5053152;28;20025;-42
2022/02/18 10:05:53;;;;;;;3.40;1.85;;;10.50;89.20;;;;;;5053290;28;20024;-42
2022/02/18 10:08:22;;;;;;;3.45;1.80;;;10.60;89.10;;;;;;5053275;28;20420;-42
2022/02/18 10:11:01;;;;;;;3.20;1.70;;;10.60;89.20;;;;;;5051848;28;20043;-42
2022/02/18 10:13:29;;;;;;;2.78;1.70;;;10.70;89.20;;;;;;5053445;28;20025;-42
2022/02/18 10:15:57;;;;;;;2.67;1.50;;;10.70;89.30;;;;;;5052937;28;20115;-42
2022/02/18 10:18:25;;;;;;;3.83;1.60;;;10.70;89.20;;;;;;5053324;28;20055;-41
2022/02/18 10:20:51;;;;;;;3.60;1.60;;;10.80;89.30;;;;;;5053041;28;20497;-42
2022/02/18 10:23:21;;;;;;;1.83;1.27;;;10.90;89.40;;;;;;5053042;28;20040;-41
2022/02/18 10:25:49;;;;;;;3.08;1.38;;;10.90;89.30;;;;;;5052899;28;20449;-41
2022/02/18 10:28:17;;;;;;;1.58;1.27;;;11.00;89.20;;;;;;5052843;28;20021;-40
2022/02/18 10:30:45;;;;;;;1.85;1.30;;;11.00;89.20;;;;;;5052858;28;20082;-41
2022/02/18 10:33:20;;;;;;;2.63;1.17;;;11.10;89.30;;;;;;5052780;28;20147;-41
2022/02/18 10:35:50;;;;;;;2.25;1.10;;;11.10;89.20;;;;;;5052888;28;20393;-41
2022/02/18 10:38:17;;;;;;;2.17;1.23;;;11.10;89.10;;;;;;5052757;28;20534;-41
2022/02/18 10:40:48;;;;;;;3.97;1.40;;;11.20;89.20;;;;;;5052747;28;20021;-41
2022/02/18 10:43:16;;;;;;;2.72;1.50;;;11.20;89.10;;;;;;5052547;28;20053;-41
2022/02/18 10:45:59;;;;;;;2.25;1.20;;;11.20;89.10;;;;;;5052794;28;20489;-41
2022/02/18 10:48:44;;;;;;;2.95;1.30;;;11.30;89.20;;;;;;5052888;28;20107;-41
2022/02/18 10:51:14;;;;;;;1.88;1.30;;;11.30;89.30;;;;;;5052551;28;20072;-41
2022/02/18 10:53:43;;;;;;;1.75;1.08;;;11.30;89.30;;;;;;5052865;28;20381;-41
2022/02/18 10:56:11;;;;;;;1.52;1.02;;;11.40;89.20;;;;;;5052887;28;20443;-41
2022/02/18 10:58:49;;;;;;;1.33;1.23;;;11.40;89.60;;;;;;5050815;28;20338;-41
2022/02/18 11:01:23;;;;;;;1.70;1.23;;;11.40;89.20;;;;;;5052445;28;20025;-40
2022/02/18 11:03:57;;;;;;;2.65;1.10;;;11.50;89.20;;;;;;5052404;28;20025;-40
2022/02/18 11:06:34;;;;;;;1.92;1.10;;;11.50;89.10;;;;;;5052431;28;20037;-41
2022/02/18 11:09:03;;;;;;;1.75;1.08;;;11.50;89.10;;;;;;5052312;28;20396;-40
2022/02/18 11:11:37;;;;;;;1.98;1.15;;;11.50;89.10;;;;;;5052592;28;20107;-41
2022/02/18 11:14:04;;;;;;;1.67;1.10;;;11.60;89.20;;;;;;5052305;28;20060;-41
2022/02/18 11:16:32;;;;;;;1.77;1.10;;;11.60;89.10;;;;;;5052353;28;20039;-40
2022/02/18 11:18:58;;;;;;;1.30;1.20;;;11.60;89.20;;;;;;5052335;28;20500;-41
2022/02/18 11:21:27;;;;;;;1.00;0.90;;;11.60;89.10;;;;;;5052251;28;20103;-40
2022/02/18 11:23:57;;;;;;;1.30;1.00;;;11.60;89.10;;;;;;5052358;28;20084;-40
2022/02/18 11:26:24;;;;;;;0.85;0.85;;;11.60;89.10;;;;;;5052305;28;20036;-40
2022/02/18 11:28:52;;;;;;;1.23;0.82;;;11.70;89.10;;;;;;5052298;28;20017;-41
2022/02/18 11:31:22;;;;;;;1.55;0.98;;;11.70;89.00;;;;;;5052417;28;20389;-41
2022/02/18 11:34:31;;;;;;;1.80;1.08;;;11.80;89.00;;;;;;5052036;28;20067;-41
2022/02/18 11:37:32;;;;;;;1.20;1.10;;;11.80;88.90;;;;;;5040098;28;20511;-41
2022/02/18 11:40:36;;;;;;;1.48;1.10;;;11.80;88.80;;;;;;5052239;28;20393;-41
2022/02/18 11:43:27;;;;;;;1.27;0.98;;;11.90;88.80;;;;;;5043422;28;20056;-41
2022/02/18 11:46:03;;;;;;;1.80;1.30;;;11.90;88.60;;;;;;5052265;28;20025;-41
2022/02/18 11:48:41;;;;;;;0.98;0.90;;;11.90;88.50;;;;;;5052019;28;20035;-40
2022/02/18 11:51:10;;;;;;;1.23;0.90;;;12.00;88.50;;;;;;5051947;28;20029;-41
2022/02/18 11:53:55;;;;;;;1.20;1.10;;;12.00;88.40;;;;;;5051954;28;20033;-41
2022/02/18 11:56:49;;;;;;;1.20;1.08;;;12.00;88.30;;;;;;5052104;28;20116;-41
2022/02/18 11:59:15;;;;;;;1.10;0.98;;;12.10;88.20;;;;;;5051786;28;20075;-40
2022/02/18 12:02:03;;;;;;;1.20;1.08;;;12.10;88.10;;;;;;5050638;28;20032;-41
2022/02/18 12:04:30;;;;;;;1.13;0.90;;;12.20;88.00;;;;;;5052010;28;20060;-41
2022/02/18 12:07:23;;;;;;;1.65;0.82;;;12.20;87.90;;;;;;5052106;28;20049;-42
2022/02/18 12:09:53;;;;;;;1.67;0.93;;;12.20;87.80;;;;;;5052425;28;20124;-41
2022/02/18 12:12:27;;;;;;;1.33;0.90;;;12.30;87.70;;;;;;5055763;28;20033;-41
2022/02/18 12:14:58;;;;;;;1.17;0.70;;;12.30;87.50;;;;;;5055296;28;20484;-41
2022/02/18 12:17:25;;;;;;;1.00;0.80;;;12.30;87.50;;;;;;5055295;28;20040;-41
2022/02/18 12:19:51;;;;;;;1.05;0.60;;;12.40;87.30;;;;;;5055323;28;20115;-41
2022/02/18 12:22:37;;;;;;;1.38;0.60;;;12.40;87.10;;;;;;5055282;28;20058;-41
2022/02/18 12:25:25;;;;;;;0.68;0.60;;;12.40;87.10;;;;;;5055201;28;20029;-41
2022/02/18 12:27:53;;;;;;;2.10;0.95;;;12.40;87.00;;;;;;5054729;28;20039;-41
2022/02/18 12:30:22;;;;;;;0.90;0.90;;;12.50;86.90;;;;;;5055230;28;20048;-41
2022/02/18 12:32:52;;;;;;;0.68;0.60;;;12.50;86.90;;;;;;5054955;28;20040;-40
2022/02/18 12:35:24;;;;;;;1.27;0.73;;;12.50;86.80;;;;;;5055067;28;20029;-40
2022/02/18 12:37:50;;;;;;;0.80;0.45;;;12.50;86.70;;;;;;5055068;28;20051;-41
2022/02/18 12:40:17;;;;;;;1.00;0.68;;;12.50;86.70;;;;;;5054939;28;20108;-40
2022/02/18 12:42:43;;;;;;;1.58;0.80;;;12.50;86.60;;;;;;5054779;28;20053;-41
2022/02/18 12:45:11;;;;;;;0.70;0.70;;;12.50;86.80;;;;;;5053332;28;20063;-41
2022/02/18 12:47:39;;;;;;;0.85;0.70;;;12.60;86.50;;;;;;5054986;28;20028;-41
2022/02/18 12:50:07;;;;;;;0.73;0.70;;;12.60;86.40;;;;;;5054878;28;20167;-40